Time;durP1;ratioP1;P1;durP2;ratioP2;P2;SDS_P1;SDS_P2;PMS_P1;PMS_P2;Temp;Humidity;BMP_temperature;BMP_pressure;BME280_temperature;BME280_humidity;BME280_pressure;Samples;Min_cycle;Max_cycle;Signal;HPM_P1;HPM_P2
2024/01/03 00:00:27;;;;;;;14.27;2.10;;;;;;;;;;5006120;28;20017;-80
2024/01/03 00:02:56;;;;;;;10.88;1.85;;;;;;;;;;5006126;28;20053;-80
2024/01/03 00:05:23;;;;;;;11.75;1.63;;;;;;;;;;5002852;28;20030;-80
2024/01/03 00:07:49;;;;;;;9.68;1.40;;;;;;;;;;5001284;28;20106;-84
2024/01/03 00:10:42;;;;;;;7.45;1.52;;;;;;;;;;4999541;28;20072;-83
2024/01/03 00:13:29;;;;;;;9.67;1.53;;;;;;;;;;5006601;28;20025;-84
2024/01/03 00:16:17;;;;;;;6.90;1.40;;;;;;;;;;5003860;28;20484;-84
2024/01/03 00:18:45;;;;;;;10.52;1.52;;;;;;;;;;5004395;28;20065;-80
2024/01/03 00:21:14;;;;;;;9.95;1.30;;;;;;;;;;5008807;28;20570;-80
2024/01/03 00:23:46;;;;;;;8.88;1.77;;;;;;;;;;5009697;28;20029;-80
2024/01/03 00:26:12;;;;;;;9.88;1.58;;;;;;;;;;5009040;28;20493;-80
2024/01/03 00:28:40;;;;;;;11.50;2.28;;;;;;;;;;5010181;28;20034;-80
2024/01/03 00:31:09;;;;;;;8.70;1.55;;;;;;;;;;5005488;28;20396;-80
2024/01/03 00:33:41;;;;;;;8.90;1.38;;;;;;;;;;5008521;28;20105;-80
2024/01/03 00:36:08;;;;;;;7.82;1.02;;;;;;;;;;5013011;28;20108;-80
2024/01/03 00:38:38;;;;;;;9.68;1.35;;;;;;;;;;5007017;28;20026;-80
2024/01/03 00:41:04;;;;;;;9.30;1.40;;;;;;;;;;5007698;28;20025;-79
2024/01/03 00:43:32;;;;;;;10.48;2.20;;;;;;;;;;5008448;28;20145;-80
2024/01/03 00:45:57;;;;;;;11.15;1.48;;;;;;;;;;5006136;28;20033;-79
2024/01/03 00:48:24;;;;;;;9.95;1.40;;;;;;;;;;5005552;28;20079;-80
2024/01/03 00:50:51;;;;;;;8.95;1.30;;;;;;;;;;5003080;28;20041;-80
2024/01/03 00:53:18;;;;;;;11.85;1.60;;;;;;;;;;5005499;28;20080;-80
2024/01/03 00:55:43;;;;;;;9.20;1.65;;;;;;;;;;5005636;28;20136;-79
2024/01/03 00:58:10;;;;;;;13.50;1.70;;;;;;;;;;5007852;28;20049;-80
2024/01/03 01:00:36;;;;;;;12.50;1.70;;;;;;;;;;5014872;28;20066;-80
2024/01/03 01:03:04;;;;;;;9.68;1.95;;;;;;;;;;5004298;28;20029;-80
2024/01/03 01:05:31;;;;;;;10.98;1.55;;;;;;;;;;5002894;28;20033;-79
2024/01/03 01:07:57;;;;;;;13.98;1.88;;;;;;;;;;4999488;28;20041;-79
2024/01/03 01:10:22;;;;;;;9.18;1.60;;;;;;;;;;5005668;28;20750;-80
2024/01/03 01:12:48;;;;;;;17.25;2.03;;;;;;;;;;5004343;28;20404;-79
2024/01/03 01:15:13;;;;;;;11.00;1.63;;;;;;;;;;5006541;28;20034;-80
2024/01/03 01:17:39;;;;;;;11.32;1.70;;;;;;;;;;5006161;28;20027;-80
2024/01/03 01:20:05;;;;;;;16.55;2.13;;;;;;;;;;5006541;28;20034;-79
2024/01/03 01:22:30;;;;;;;18.77;2.22;;;;;;;;;;5004150;28;20034;-79
2024/01/03 01:24:56;;;;;;;11.10;2.28;;;;;;;;;;5006311;28;20041;-80
2024/01/03 01:27:21;;;;;;;14.88;2.13;;;;;;;;;;5004382;28;20433;-80
2024/01/03 01:29:47;;;;;;;10.70;1.38;;;;;;;;;;5003317;28;21657;-80
2024/01/03 01:32:13;;;;;;;17.98;2.92;;;;;;;;;;5003228;28;20816;-79
2024/01/03 01:34:40;;;;;;;15.95;2.35;;;;;;;;;;5005520;28;20026;-80
2024/01/03 01:37:08;;;;;;;14.63;2.70;;;;;;;;;;5004801;28;20028;-79
2024/01/03 01:39:35;;;;;;;12.30;2.63;;;;;;;;;;5004342;28;20037;-84
2024/01/03 01:42:00;;;;;;;12.48;1.52;;;;;;;;;;5002343;28;20026;-84
2024/01/03 01:44:25;;;;;;;12.52;1.85;;;;;;;;;;5004693;28;21293;-84
2024/01/03 01:46:51;;;;;;;15.30;2.72;;;;;;;;;;4987999;28;20393;-83
2024/01/03 01:49:18;;;;;;;17.88;1.98;;;;;;;;;;5005291;28;20021;-84
2024/01/03 01:51:44;;;;;;;19.17;2.78;;;;;;;;;;5002118;28;20030;-84
2024/01/03 01:54:12;;;;;;;13.82;2.20;;;;;;;;;;5005281;28;20113;-83
2024/01/03 01:56:39;;;;;;;13.20;1.88;;;;;;;;;;5004333;28;21526;-84
2024/01/03 01:59:07;;;;;;;15.85;2.00;;;;;;;;;;5002607;28;20022;-84
2024/01/03 02:01:34;;;;;;;12.45;2.10;;;;;;;;;;5020340;28;20033;-80
2024/01/03 02:04:02;;;;;;;16.17;2.53;;;;;;;;;;5027550;23;20076;-85
2024/01/03 02:06:27;;;;;;;18.15;2.45;;;;;;;;;;5005989;28;20030;-85
2024/01/03 02:08:53;;;;;;;17.63;2.60;;;;;;;;;;5004322;28;20080;-85
2024/01/03 02:11:19;;;;;;;14.73;2.33;;;;;;;;;;5020137;28;20487;-85
2024/01/03 02:13:46;;;;;;;17.50;2.25;;;;;;;;;;5003617;28;20037;-87
2024/01/03 02:16:11;;;;;;;14.65;2.38;;;;;;;;;;5003503;28;20483;-86
2024/01/03 02:18:39;;;;;;;20.27;2.60;;;;;;;;;;5002687;28;20041;-86
2024/01/03 02:21:11;;;;;;;12.40;1.85;;;;;;;;;;5021658;28;20026;-87
2024/01/03 02:23:37;;;;;;;17.65;2.05;;;;;;;;;;5010243;28;20017;-86
2024/01/03 02:26:02;;;;;;;14.93;2.10;;;;;;;;;;5005249;28;20045;-86
2024/01/03 02:28:28;;;;;;;13.90;2.17;;;;;;;;;;5004293;28;20393;-86
2024/01/03 02:30:53;;;;;;;13.63;2.50;;;;;;;;;;5003705;28;20030;-86
2024/01/03 02:33:18;;;;;;;12.05;1.83;;;;;;;;;;5019378;28;20030;-86
2024/01/03 02:35:44;;;;;;;19.90;2.25;;;;;;;;;;5004538;28;20041;-87
2024/01/03 02:38:09;;;;;;;11.68;2.28;;;;;;;;;;5003627;28;20499;-85
2024/01/03 02:40:35;;;;;;;14.32;1.95;;;;;;;;;;5002236;28;20140;-86
2024/01/03 02:43:00;;;;;;;9.95;1.77;;;;;;;;;;5003280;28;20033;-87
2024/01/03 02:45:25;;;;;;;17.38;2.72;;;;;;;;;;5001773;28;20026;-86
2024/01/03 02:47:51;;;;;;;12.88;2.85;;;;;;;;;;5004919;28;20109;-87
2024/01/03 02:50:16;;;;;;;11.35;2.10;;;;;;;;;;5002807;28;20526;-86
2024/01/03 02:52:41;;;;;;;12.88;2.25;;;;;;;;;;5003837;28;20112;-86
2024/01/03 02:55:07;;;;;;;17.98;2.40;;;;;;;;;;5002161;28;20030;-86
2024/01/03 02:57:32;;;;;;;16.98;2.22;;;;;;;;;;5001274;28;20116;-87
2024/01/03 02:59:58;;;;;;;11.55;2.25;;;;;;;;;;5003184;28;20120;-87
2024/01/03 03:02:25;;;;;;;12.38;2.22;;;;;;;;;;5008095;28;20827;-86
2024/01/03 03:04:50;;;;;;;14.25;2.13;;;;;;;;;;5003379;28;20025;-86
2024/01/03 03:07:15;;;;;;;13.68;2.15;;;;;;;;;;5004886;28;20028;-87
2024/01/03 03:09:41;;;;;;;14.35;2.35;;;;;;;;;;5001736;28;20037;-87
2024/01/03 03:12:06;;;;;;;17.13;2.35;;;;;;;;;;5004602;28;20133;-87
2024/01/03 03:14:32;;;;;;;13.52;2.05;;;;;;;;;;5008150;28;20025;-86
2024/01/03 03:16:57;;;;;;;16.00;2.30;;;;;;;;;;5005555;28;20480;-86
2024/01/03 03:19:22;;;;;;;14.63;2.50;;;;;;;;;;4998405;28;20084;-86
2024/01/03 03:21:48;;;;;;;12.27;1.88;;;;;;;;;;5007859;28;20104;-87
2024/01/03 03:24:13;;;;;;;18.85;2.28;;;;;;;;;;5006391;28;20028;-86
2024/01/03 03:26:39;;;;;;;10.18;1.85;;;;;;;;;;5009005;28;20026;-86
2024/01/03 03:29:04;;;;;;;16.80;2.25;;;;;;;;;;5008829;28;20033;-87
2024/01/03 03:31:31;;;;;;;13.48;2.30;;;;;;;;;;5006856;28;20109;-86
2024/01/03 03:33:56;;;;;;;16.13;2.40;;;;;;;;;;5008130;28;20117;-87
2024/01/03 03:36:22;;;;;;;18.95;2.45;;;;;;;;;;4989448;28;20133;-87
2024/01/03 03:38:48;;;;;;;13.82;2.30;;;;;;;;;;5009210;28;20022;-87
2024/01/03 03:41:13;;;;;;;18.90;2.63;;;;;;;;;;5005077;28;20033;-87
2024/01/03 03:43:40;;;;;;;15.32;2.15;;;;;;;;;;5002645;28;20030;-86
2024/01/03 03:46:10;;;;;;;16.25;2.60;;;;;;;;;;5006543;28;20396;-87
2024/01/03 03:48:36;;;;;;;13.80;2.63;;;;;;;;;;5001896;28;20049;-86
2024/01/03 03:51:02;;;;;;;20.30;4.20;;;;;;;;;;5004441;28;20061;-87
2024/01/03 03:53:27;;;;;;;22.58;5.93;;;;;;;;;;5004341;28;20030;-87
2024/01/03 03:55:53;;;;;;;21.15;6.72;;;;;;;;;;5012528;28;20406;-85
2024/01/03 03:58:18;;;;;;;23.85;8.07;;;;;;;;;;5008158;28;20080;-87
2024/01/03 04:00:43;;;;;;;23.08;6.75;;;;;;;;;;5007384;28;20030;-86
2024/01/03 04:03:09;;;;;;;22.63;5.97;;;;;;;;;;5005513;28;20084;-87
2024/01/03 04:05:38;;;;;;;22.20;5.35;;;;;;;;;;5003000;28;20113;-86
2024/01/03 04:08:06;;;;;;;16.80;5.22;;;;;;;;;;5006899;28;20017;-86
2024/01/03 04:10:31;;;;;;;16.30;4.32;;;;;;;;;;5006691;28;20030;-86
2024/01/03 04:12:57;;;;;;;18.63;5.00;;;;;;;;;;5008067;28;20399;-86
2024/01/03 04:15:23;;;;;;;17.50;3.50;;;;;;;;;;5008868;28;20026;-86
2024/01/03 04:17:49;;;;;;;14.45;2.80;;;;;;;;;;5006910;28;20717;-78
2024/01/03 04:20:15;;;;;;;15.18;3.45;;;;;;;;;;5009188;28;20068;-77
2024/01/03 04:22:43;;;;;;;15.00;2.03;;;;;;;;;;5004889;28;20026;-78
2024/01/03 04:25:09;;;;;;;20.95;2.78;;;;;;;;;;4999998;28;20045;-78
2024/01/03 04:27:35;;;;;;;15.93;2.40;;;;;;;;;;5008539;28;20412;-78
2024/01/03 04:30:01;;;;;;;13.50;2.72;;;;;;;;;;5006749;28;20032;-78
2024/01/03 04:32:27;;;;;;;17.38;2.53;;;;;;;;;;5008724;28;20079;-78
2024/01/03 04:34:52;;;;;;;17.08;2.70;;;;;;;;;;5003616;28;20034;-78
2024/01/03 04:37:18;;;;;;;22.30;4.30;;;;;;;;;;5008196;28;20030;-78
2024/01/03 04:39:44;;;;;;;18.73;3.63;;;;;;;;;;5004983;28;20030;-78
2024/01/03 04:42:10;;;;;;;17.00;2.83;;;;;;;;;;5004503;28;20046;-78
2024/01/03 04:44:35;;;;;;;18.38;3.17;;;;;;;;;;5002935;28;20056;-78
2024/01/03 04:47:01;;;;;;;16.08;2.78;;;;;;;;;;5003905;28;20057;-77
2024/01/03 04:49:28;;;;;;;10.80;2.67;;;;;;;;;;5005154;28;20105;-78
2024/01/03 04:51:53;;;;;;;14.57;2.47;;;;;;;;;;5000389;28;20030;-78
2024/01/03 04:54:19;;;;;;;13.75;2.60;;;;;;;;;;5007481;28;20045;-77
2024/01/03 04:56:45;;;;;;;14.23;3.00;;;;;;;;;;5001726;28;20030;-78
2024/01/03 04:59:10;;;;;;;13.60;2.78;;;;;;;;;;5015844;28;20614;-78
2024/01/03 05:01:35;;;;;;;18.55;3.22;;;;;;;;;;5002257;28;20447;-77
2024/01/03 05:04:02;;;;;;;16.42;3.10;;;;;;;;;;5004178;28;20480;-78
2024/01/03 05:06:28;;;;;;;14.63;2.85;;;;;;;;;;5007757;28;20026;-78
2024/01/03 05:08:53;;;;;;;17.88;3.35;;;;;;;;;;5010310;28;20033;-78
2024/01/03 05:11:18;;;;;;;13.13;2.40;;;;;;;;;;5007461;28;20707;-78
2024/01/03 05:13:44;;;;;;;13.07;2.42;;;;;;;;;;5010936;28;20531;-78
2024/01/03 05:16:10;;;;;;;12.00;2.35;;;;;;;;;;5005051;28;20129;-80
2024/01/03 05:18:36;;;;;;;11.65;2.60;;;;;;;;;;5006181;28;20025;-78
2024/01/03 05:21:02;;;;;;;11.57;2.47;;;;;;;;;;5004304;28;20057;-78
2024/01/03 05:23:27;;;;;;;11.55;2.42;;;;;;;;;;5003612;28;20057;-78
2024/01/03 05:25:53;;;;;;;8.98;1.90;;;;;;;;;;5005526;28;20029;-78
2024/01/03 05:28:18;;;;;;;9.80;2.30;;;;;;;;;;5003983;28;20025;-87
2024/01/03 05:30:45;;;;;;;11.68;2.05;;;;;;;;;;5004894;28;20026;-85
2024/01/03 05:33:10;;;;;;;8.30;2.17;;;;;;;;;;5004618;28;20034;-85
2024/01/03 05:35:35;;;;;;;7.97;1.73;;;;;;;;;;5004015;28;20401;-86
2024/01/03 05:38:02;;;;;;;8.52;1.95;;;;;;;;;;5005657;28;20071;-86
2024/01/03 05:40:28;;;;;;;8.27;1.65;;;;;;;;;;5002475;28;20636;-86
2024/01/03 05:42:54;;;;;;;7.75;2.03;;;;;;;;;;5004246;28;20030;-85
2024/01/03 05:45:20;;;;;;;7.78;2.10;;;;;;;;;;5002728;28;20030;-86
2024/01/03 05:47:46;;;;;;;9.07;2.70;;;;;;;;;;5013499;28;20117;-87
2024/01/03 05:50:11;;;;;;;6.13;2.03;;;;;;;;;;5006315;28;20125;-87
2024/01/03 05:52:37;;;;;;;7.57;1.73;;;;;;;;;;5014343;28;20052;-86
2024/01/03 05:55:03;;;;;;;7.90;1.88;;;;;;;;;;5012340;28;20026;-85
2024/01/03 05:57:30;;;;;;;8.27;1.58;;;;;;;;;;5007970;28;20026;-86
2024/01/03 05:59:56;;;;;;;8.00;1.88;;;;;;;;;;5005567;28;20038;-86
2024/01/03 06:02:22;;;;;;;7.25;1.90;;;;;;;;;;5017100;28;20472;-85
2024/01/03 06:04:48;;;;;;;5.78;1.45;;;;;;;;;;5002703;28;20045;-86
2024/01/03 06:07:13;;;;;;;6.18;1.27;;;;;;;;;;5005787;28;20116;-86
2024/01/03 06:09:39;;;;;;;8.80;1.10;;;;;;;;;;5002806;28;20030;-86
2024/01/03 06:12:04;;;;;;;7.03;1.15;;;;;;;;;;5005903;28;20037;-87
2024/01/03 06:14:30;;;;;;;8.30;1.85;;;;;;;;;;5021954;28;20022;-86
2024/01/03 06:16:55;;;;;;;4.35;0.95;;;;;;;;;;5023861;28;20041;-87
2024/01/03 06:19:21;;;;;;;6.82;1.20;;;;;;;;;;5005810;28;20076;-88
2024/01/03 06:21:47;;;;;;;3.60;0.95;;;;;;;;;;5010169;28;20076;-86
2024/01/03 06:24:12;;;;;;;5.03;0.90;;;;;;;;;;5012299;28;20060;-86
2024/01/03 06:26:38;;;;;;;4.60;0.75;;;;;;;;;;5008483;28;20056;-86
2024/01/03 06:29:03;;;;;;;5.47;0.80;;;;;;;;;;5009181;28;20444;-86
2024/01/03 06:31:30;;;;;;;3.65;0.68;;;;;;;;;;5013642;28;20106;-85
2024/01/03 06:33:55;;;;;;;3.55;0.50;;;;;;;;;;5017429;28;20029;-86
2024/01/03 06:36:21;;;;;;;3.33;0.70;;;;;;;;;;5006403;28;20041;-86
2024/01/03 06:38:47;;;;;;;3.35;0.55;;;;;;;;;;5010598;28;20041;-86
2024/01/03 06:41:12;;;;;;;1.83;0.60;;;;;;;;;;5008009;28;20029;-86
2024/01/03 06:43:38;;;;;;;2.78;0.70;;;;;;;;;;5007840;28;20056;-87
2024/01/03 06:46:03;;;;;;;1.17;0.50;;;;;;;;;;5007270;28;20029;-85
2024/01/03 06:48:29;;;;;;;3.15;0.50;;;;;;;;;;5007873;28;20440;-86
2024/01/03 06:50:55;;;;;;;3.42;0.50;;;;;;;;;;5004464;28;20167;-87
2024/01/03 06:53:20;;;;;;;2.13;0.52;;;;;;;;;;5021969;28;20026;-87
2024/01/03 06:55:46;;;;;;;3.95;0.70;;;;;;;;;;5014025;28;20038;-86
2024/01/03 06:58:11;;;;;;;2.42;0.60;;;;;;;;;;5003510;28;20030;-86
2024/01/03 07:00:37;;;;;;;4.97;1.00;;;;;;;;;;5002987;28;20985;-86
2024/01/03 07:03:04;;;;;;;2.35;0.50;;;;;;;;;;4999537;28;20029;-86
2024/01/03 07:05:29;;;;;;;3.75;0.70;;;;;;;;;;5006380;28;20099;-85
2024/01/03 07:07:56;;;;;;;4.32;0.73;;;;;;;;;;4996472;28;20419;-85
2024/01/03 07:10:22;;;;;;;3.83;0.50;;;;;;;;;;4998617;28;20239;-85
2024/01/03 07:12:47;;;;;;;1.90;0.57;;;;;;;;;;4998857;28;20036;-85
2024/01/03 07:15:17;;;;;;;3.30;0.50;;;;;;;;;;5000863;28;21011;-85
2024/01/03 07:17:44;;;;;;;2.22;0.40;;;;;;;;;;5002830;28;20493;-86
2024/01/03 07:20:10;;;;;;;1.23;0.20;;;;;;;;;;4999778;28;20729;-85
2024/01/03 07:22:35;;;;;;;1.83;0.30;;;;;;;;;;4997725;28;20046;-86
2024/01/03 07:25:01;;;;;;;2.42;0.30;;;;;;;;;;4996952;28;20089;-85
2024/01/03 07:27:26;;;;;;;2.92;0.43;;;;;;;;;;4999098;28;20033;-86
2024/01/03 07:29:53;;;;;;;0.82;0.30;;;;;;;;;;4995731;28;20026;-85
2024/01/03 07:32:19;;;;;;;2.15;0.35;;;;;;;;;;4996379;28;20049;-85
2024/01/03 07:34:44;;;;;;;2.00;0.32;;;;;;;;;;4991998;28;20479;-85
2024/01/03 07:37:09;;;;;;;3.05;0.35;;;;;;;;;;5000103;28;20048;-85
2024/01/03 07:39:35;;;;;;;3.55;0.50;;;;;;;;;;4990921;28;20170;-84
2024/01/03 07:42:00;;;;;;;1.60;0.30;;;;;;;;;;4995191;28;20786;-85
2024/01/03 07:44:26;;;;;;;2.58;0.30;;;;;;;;;;4997057;28;20112;-86
2024/01/03 07:46:52;;;;;;;1.00;0.30;;;;;;;;;;4999150;28;20435;-85
2024/01/03 07:49:18;;;;;;;3.08;0.73;;;;;;;;;;4996463;28;20084;-78
2024/01/03 07:51:45;;;;;;;2.70;0.60;;;;;;;;;;4992835;28;20041;-78
2024/01/03 07:54:12;;;;;;;1.30;0.45;;;;;;;;;;4994761;28;20062;-79
2024/01/03 07:56:37;;;;;;;2.70;0.75;;;;;;;;;;4994283;28;20483;-78
2024/01/03 07:59:02;;;;;;;4.40;0.88;;;;;;;;;;4997508;28;21111;-78
2024/01/03 08:01:28;;;;;;;4.22;1.00;;;;;;;;;;4993706;28;20124;-79
2024/01/03 08:03:54;;;;;;;2.65;0.80;;;;;;;;;;5008761;28;20476;-78
2024/01/03 08:06:20;;;;;;;2.83;0.80;;;;;;;;;;4996576;28;20586;-78
2024/01/03 08:08:46;;;;;;;5.85;1.50;;;;;;;;;;5009544;28;20316;-78
2024/01/03 08:11:11;;;;;;;3.17;1.10;;;;;;;;;;4998215;28;20044;-79
2024/01/03 08:13:37;;;;;;;6.85;1.63;;;;;;;;;;4996734;28;20096;-79
2024/01/03 08:16:04;;;;;;;4.47;1.30;;;;;;;;;;4996307;28;21328;-77
2024/01/03 08:18:29;;;;;;;4.30;1.40;;;;;;;;;;4993385;28;20105;-78
2024/01/03 08:20:55;;;;;;;6.57;1.73;;;;;;;;;;5001977;28;20117;-78
2024/01/03 08:23:20;;;;;;;3.92;2.00;;;;;;;;;;4992262;28;20636;-77
2024/01/03 08:25:46;;;;;;;6.60;2.20;;;;;;;;;;4991296;28;20069;-77
2024/01/03 08:28:11;;;;;;;5.20;2.30;;;;;;;;;;4992798;28;20113;-77
2024/01/03 08:30:37;;;;;;;6.07;2.47;;;;;;;;;;4994241;28;20534;-80
2024/01/03 08:33:02;;;;;;;6.97;2.90;;;;;;;;;;4997169;28;20599;-77
2024/01/03 08:35:30;;;;;;;6.93;2.75;;;;;;;;;;4976490;28;20459;-77
2024/01/03 08:37:56;;;;;;;5.95;3.08;;;;;;;;;;4993786;28;20582;-77
2024/01/03 08:40:21;;;;;;;7.40;3.58;;;;;;;;;;4995730;28;20030;-77
2024/01/03 08:42:48;;;;;;;7.72;3.17;;;;;;;;;;5000047;28;20041;-77
2024/01/03 08:45:13;;;;;;;7.65;3.38;;;;;;;;;;4999800;28;20021;-78
2024/01/03 08:47:39;;;;;;;9.27;3.60;;;;;;;;;;5015203;28;20616;-79
2024/01/03 08:50:04;;;;;;;8.00;3.08;;;;;;;;;;4999869;28;20060;-79
2024/01/03 08:52:30;;;;;;;9.57;3.00;;;;;;;;;;4999623;28;20029;-79
2024/01/03 08:54:56;;;;;;;9.35;2.65;;;;;;;;;;4999093;28;20037;-79
2024/01/03 08:57:21;;;;;;;7.78;2.80;;;;;;;;;;4995279;28;20504;-79
2024/01/03 08:59:47;;;;;;;10.38;2.60;;;;;;;;;;4998974;28;20060;-85
2024/01/03 09:02:13;;;;;;;12.73;3.10;;;;;;;;;;4992025;28;20036;-84
2024/01/03 09:04:40;;;;;;;9.25;2.67;;;;;;;;;;4998238;28;20337;-83
2024/01/03 09:07:05;;;;;;;11.30;2.80;;;;;;;;;;4995866;28;20148;-85
2024/01/03 09:09:31;;;;;;;7.30;2.28;;;;;;;;;;5004525;28;20418;-85
2024/01/03 09:11:56;;;;;;;8.90;2.30;;;;;;;;;;4995147;28;20462;-86
2024/01/03 09:14:23;;;;;;;10.00;2.20;;;;;;;;;;4990916;28;20591;-86
2024/01/03 09:16:48;;;;;;;8.98;2.22;;;;;;;;;;4996025;28;20025;-85
2024/01/03 09:19:14;;;;;;;12.20;2.38;;;;;;;;;;4998941;28;20499;-85
2024/01/03 09:21:45;;;;;;;11.98;2.13;;;;;;;;;;4997153;28;20030;-86
2024/01/03 09:24:11;;;;;;;12.80;2.60;;;;;;;;;;5012000;28;20080;-85
2024/01/03 09:26:36;;;;;;;11.98;2.63;;;;;;;;;;5000559;28;20026;-85
2024/01/03 09:29:01;;;;;;;10.57;2.25;;;;;;;;;;5000525;28;20435;-85
2024/01/03 09:31:27;;;;;;;17.58;3.10;;;;;;;;;;4998815;28;20034;-86
2024/01/03 09:33:52;;;;;;;11.52;2.15;;;;;;;;;;4998377;28;20727;-86
2024/01/03 09:36:19;;;;;;;19.35;2.58;;;;;;;;;;4997384;28;20111;-86
2024/01/03 09:38:45;;;;;;;9.60;2.25;;;;;;;;;;4995563;28;20514;-85
2024/01/03 09:41:12;;;;;;;11.57;2.53;;;;;;;;;;4992476;28;20129;-85
2024/01/03 09:43:48;;;;;;;11.13;1.92;;;;;;;;;;4977675;28;20036;-85
2024/01/03 09:46:13;;;;;;;15.57;2.72;;;;;;;;;;4982891;28;20175;-86
2024/01/03 09:48:40;;;;;;;13.60;2.67;;;;;;;;;;4991978;28;20628;-85
2024/01/03 09:51:07;;;;;;;18.27;2.97;;;;;;;;;;4994299;28;20469;-85
2024/01/03 09:53:33;;;;;;;14.15;2.58;;;;;;;;;;4991663;28;20029;-85
2024/01/03 09:56:00;;;;;;;13.85;2.58;;;;;;;;;;4993302;28;20238;-85
2024/01/03 09:58:27;;;;;;;18.35;2.88;;;;;;;;;;4993958;28;21233;-85
2024/01/03 10:00:53;;;;;;;14.30;3.50;;;;;;;;;;4992556;28;20088;-85
2024/01/03 10:03:19;;;;;;;15.18;2.97;;;;;;;;;;4988492;28;20512;-86
2024/01/03 10:05:44;;;;;;;18.30;3.10;;;;;;;;;;4983757;28;20532;-85
2024/01/03 10:08:17;;;;;;;19.27;3.95;;;;;;;;;;4990369;28;20036;-87
2024/01/03 10:10:45;;;;;;;18.08;4.20;;;;;;;;;;4994043;28;20491;-86
2024/01/03 10:13:23;;;;;;;17.55;4.93;;;;;;;;;;4989320;28;20057;-86
2024/01/03 10:15:49;;;;;;;15.82;3.78;;;;;;;;;;5007253;28;20093;-86
2024/01/03 10:18:16;;;;;;;13.65;3.50;;;;;;;;;;4993310;28;20034;-79
2024/01/03 10:20:42;;;;;;;11.40;2.90;;;;;;;;;;4991282;28;20025;-79
2024/01/03 10:23:16;;;;;;;11.88;3.10;;;;;;;;;;5007532;28;20455;-79
2024/01/03 10:25:43;;;;;;;15.50;3.22;;;;;;;;;;4991813;28;20252;-79
2024/01/03 10:28:19;;;;;;;13.82;3.33;;;;;;;;;;4991515;28;20614;-79
2024/01/03 10:30:52;;;;;;;14.35;3.38;;;;;;;;;;5006531;28;20037;-78
2024/01/03 10:33:18;;;;;;;13.25;3.20;;;;;;;;;;4989865;28;20135;-77
2024/01/03 10:35:45;;;;;;;18.38;3.50;;;;;;;;;;4989442;28;20854;-80
2024/01/03 10:38:10;;;;;;;24.77;3.88;;;;;;;;;;4987352;28;20534;-78
2024/01/03 10:40:37;;;;;;;19.63;3.70;;;;;;;;;;4987417;28;20140;-78
2024/01/03 10:43:07;;;;;;;20.33;3.20;;;;;;;;;;4986290;28;20032;-78
2024/01/03 10:45:33;;;;;;;17.52;3.20;;;;;;;;;;4999090;28;20436;-78
2024/01/03 10:47:59;;;;;;;16.10;3.33;;;;;;;;;;4983377;28;20487;-78
2024/01/03 10:50:25;;;;;;;19.33;2.97;;;;;;;;;;4987023;28;20711;-79
2024/01/03 10:52:55;;;;;;;15.45;3.33;;;;;;;;;;4983395;28;20034;-79
2024/01/03 10:55:25;;;;;;;16.15;2.50;;;;;;;;;;4996968;28;20075;-79
2024/01/03 10:57:58;;;;;;;19.48;3.53;;;;;;;;;;4997349;28;20038;-79
2024/01/03 11:00:30;;;;;;;13.75;3.42;;;;;;;;;;4979019;28;20645;-79
2024/01/03 11:03:05;;;;;;;19.65;3.95;;;;;;;;;;5007072;28;20042;-79
2024/01/03 11:06:03;;;;;;;13.80;2.95;;;;;;;;;;4995263;28;20060;-79
2024/01/03 11:08:38;;;;;;;18.02;3.72;;;;;;;;;;4978863;28;20089;-77
2024/01/03 11:11:03;;;;;;;15.60;3.70;;;;;;;;;;5000555;28;20080;-78
2024/01/03 11:13:33;;;;;;;16.05;4.35;;;;;;;;;;4994907;28;20033;-78
2024/01/03 11:16:00;;;;;;;21.75;4.15;;;;;;;;;;5008280;28;20034;-80
2024/01/03 11:18:41;;;;;;;19.50;4.50;;;;;;;;;;5009469;28;20029;-77
2024/01/03 11:21:28;;;;;;;16.35;4.40;;;;;;;;;;4992500;28;20044;-77
2024/01/03 11:23:54;;;;;;;20.75;4.95;;;;;;;;;;4993196;28;20026;-78
2024/01/03 11:26:39;;;;;;;19.52;5.05;;;;;;;;;;5010531;28;20116;-78
2024/01/03 11:29:05;;;;;;;23.15;5.00;;;;;;;;;;4994966;28;20105;-77
2024/01/03 11:31:57;;;;;;;14.52;3.50;;;;;;;;;;4994531;28;20329;-78
2024/01/03 11:34:42;;;;;;;23.88;4.40;;;;;;;;;;4996487;28;20036;-80
2024/01/03 11:37:29;;;;;;;18.10;4.28;;;;;;;;;;4995435;28;20034;-78
2024/01/03 11:39:56;;;;;;;19.70;3.47;;;;;;;;;;4994572;28;20128;-84
2024/01/03 11:42:31;;;;;;;18.88;4.35;;;;;;;;;;4992244;28;20033;-85
2024/01/03 11:45:00;;;;;;;23.45;4.35;;;;;;;;;;4992919;28;20030;-85
2024/01/03 11:47:25;;;;;;;21.40;4.00;;;;;;;;;;4996282;28;20032;-85
2024/01/03 11:49:56;;;;;;;17.80;3.45;;;;;;;;;;4992267;28;20030;-84
2024/01/03 11:52:21;;;;;;;10.63;2.75;;;;;;;;;;4992142;28;20504;-84
2024/01/03 11:54:49;;;;;;;11.88;2.90;;;;;;;;;;4996564;28;20040;-84
2024/01/03 11:57:15;;;;;;;16.35;3.30;;;;;;;;;;4993075;28;20482;-84
2024/01/03 11:59:41;;;;;;;15.88;2.97;;;;;;;;;;4995117;28;20986;-84
2024/01/03 12:02:07;;;;;;;10.63;2.80;;;;;;;;;;4993781;28;20034;-84
2024/01/03 12:04:32;;;;;;;12.43;2.55;;;;;;;;;;4961265;28;20779;-84
2024/01/03 12:06:59;;;;;;;12.18;3.00;;;;;;;;;;4989272;28;20108;-84
2024/01/03 12:09:32;;;;;;;11.63;1.67;;;;;;;;;;4991125;28;20164;-84
2024/01/03 12:11:58;;;;;;;9.60;2.47;;;;;;;;;;4987520;28;20052;-84
2024/01/03 12:14:23;;;;;;;8.02;1.20;;;;;;;;;;4989389;28;20030;-84
2024/01/03 12:16:54;;;;;;;5.97;1.15;;;;;;;;;;4995491;28;20084;-85
2024/01/03 12:19:32;;;;;;;4.93;1.60;;;;;;;;;;5012054;28;20084;-85
2024/01/03 12:21:59;;;;;;;5.90;0.98;;;;;;;;;;4996223;28;20519;-85
2024/01/03 12:24:38;;;;;;;3.85;1.15;;;;;;;;;;5013169;28;20124;-84
2024/01/03 12:27:08;;;;;;;4.93;1.20;;;;;;;;;;5015340;28;20026;-84
2024/01/03 12:29:35;;;;;;;4.90;1.00;;;;;;;;;;4997623;28;20029;-85
2024/01/03 12:32:10;;;;;;;4.95;1.13;;;;;;;;;;5017808;28;20041;-86
2024/01/03 12:34:37;;;;;;;3.35;1.10;;;;;;;;;;4995558;28;20060;-85
2024/01/03 12:37:02;;;;;;;5.20;0.80;;;;;;;;;;5000461;28;21620;-84
2024/01/03 12:39:35;;;;;;;4.60;0.70;;;;;;;;;;5000886;28;20041;-85
2024/01/03 12:42:07;;;;;;;4.45;1.02;;;;;;;;;;5002115;28;20037;-86
2024/01/03 12:44:32;;;;;;;4.07;0.80;;;;;;;;;;5002328;28;20041;-87
2024/01/03 12:46:58;;;;;;;5.53;1.17;;;;;;;;;;5000728;28;20045;-85
2024/01/03 12:49:24;;;;;;;4.88;0.88;;;;;;;;;;5017585;28;20056;-80
2024/01/03 12:51:49;;;;;;;3.40;1.10;;;;;;;;;;5007434;28;20041;-79
2024/01/03 12:54:15;;;;;;;4.28;0.90;;;;;;;;;;5003215;28;20722;-80
2024/01/03 12:56:40;;;;;;;6.18;1.40;;;;;;;;;;5003771;28;20026;-79
2024/01/03 12:59:05;;;;;;;5.97;1.10;;;;;;;;;;5001489;28;20545;-79
2024/01/03 13:01:31;;;;;;;3.20;0.93;;;;;;;;;;5003718;28;20765;-77
2024/01/03 13:03:57;;;;;;;5.55;1.25;;;;;;;;;;5007012;28;20044;-78
2024/01/03 13:06:22;;;;;;;4.15;1.27;;;;;;;;;;5017405;28;20033;-79
2024/01/03 13:08:47;;;;;;;7.88;1.80;;;;;;;;;;5002459;28;20034;-78
2024/01/03 13:11:13;;;;;;;3.33;1.10;;;;;;;;;;4996112;28;20030;-79
2024/01/03 13:13:38;;;;;;;6.43;1.80;;;;;;;;;;5014298;28;20030;-78
2024/01/03 13:16:04;;;;;;;8.95;1.27;;;;;;;;;;5005444;28;20096;-78
2024/01/03 13:18:30;;;;;;;7.60;1.50;;;;;;;;;;5007881;28;20068;-78
2024/01/03 13:20:55;;;;;;;6.35;1.50;;;;;;;;;;5006829;28;20045;-79
2024/01/03 13:23:22;;;;;;;5.22;1.38;;;;;;;;;;5004814;28;20037;-80
2024/01/03 13:25:47;;;;;;;8.82;1.67;;;;;;;;;;5008158;28;20116;-78
2024/01/03 13:28:13;;;;;;;9.07;1.67;;;;;;;;;;5006268;28;20531;-78
2024/01/03 13:30:38;;;;;;;6.15;1.70;;;;;;;;;;5006500;28;20112;-78
2024/01/03 13:33:04;;;;;;;6.70;1.65;;;;;;;;;;5004717;28;20053;-78
2024/01/03 13:35:29;;;;;;;8.27;2.42;;;;;;;;;;5024063;28;20036;-78
2024/01/03 13:37:55;;;;;;;6.65;1.50;;;;;;;;;;5008385;28;20455;-78
2024/01/03 13:40:20;;;;;;;9.90;1.50;;;;;;;;;;5007137;28;20038;-77
2024/01/03 13:42:46;;;;;;;6.22;1.40;;;;;;;;;;5003058;28;20116;-78
2024/01/03 13:45:11;;;;;;;5.43;1.70;;;;;;;;;;5010414;28;20045;-78
2024/01/03 13:47:37;;;;;;;6.25;1.65;;;;;;;;;;5004212;28;20025;-78
2024/01/03 13:50:04;;;;;;;10.63;2.00;;;;;;;;;;5009580;28;20029;-78
2024/01/03 13:52:29;;;;;;;7.13;1.52;;;;;;;;;;5006033;28;20035;-78
2024/01/03 13:54:55;;;;;;;5.95;1.48;;;;;;;;;;5004441;28;20026;-78
2024/01/03 13:57:20;;;;;;;7.28;1.20;;;;;;;;;;5006994;28;20042;-79
2024/01/03 13:59:46;;;;;;;2.30;0.73;;;;;;;;;;5018119;28;20057;-79
2024/01/03 14:02:11;;;;;;;1.80;0.60;;;;;;;;;;5006150;28;20037;-78
2024/01/03 14:04:38;;;;;;;2.05;0.70;;;;;;;;;;5006666;28;20074;-79
2024/01/03 14:07:03;;;;;;;2.05;0.43;;;;;;;;;;5004861;28;20065;-78
2024/01/03 14:09:29;;;;;;;0.95;0.30;;;;;;;;;;5018742;28;20062;-79
2024/01/03 14:11:55;;;;;;;3.53;1.45;;;;;;;;;;5002326;28;20030;-79
2024/01/03 14:14:21;;;;;;;2.40;0.77;;;;;;;;;;5000489;28;20060;-79
2024/01/03 14:16:47;;;;;;;2.72;0.50;;;;;;;;;;4997467;28;20038;-78
2024/01/03 14:19:13;;;;;;;2.85;0.70;;;;;;;;;;5001514;28;20507;-79
2024/01/03 14:21:43;;;;;;;2.00;0.88;;;;;;;;;;5002173;28;20026;-79
2024/01/03 14:24:09;;;;;;;3.20;1.33;;;;;;;;;;5009456;28;20029;-78
2024/01/03 14:26:35;;;;;;;5.03;0.88;;;;;;;;;;4998106;28;20042;-79
2024/01/03 14:29:03;;;;;;;5.53;1.38;;;;;;;;;;5005361;28;20492;-79
2024/01/03 14:31:28;;;;;;;3.85;1.23;;;;;;;;;;5001659;28;20045;-79
2024/01/03 14:33:54;;;;;;;4.75;1.30;;;;;;;;;;5006504;28;20029;-79